Terminal Aerodrome Forecast
Issued by NWS

Home | Current Version | Previous Version | Text Only | Print | Product List | Glossary On
Versions: 1 2 3 4 5 6 7 8 9 10 11 12 13 14 15 16 17 18 19
171
FTUS41 KBTV 050241 AAA
TAFRUT
TAF AMD
KRUT 050241Z 0503/0524 VRB03KT P6SM VCSH BKN025 OVC040
     FM051200 08005KT P6SM OVC035
     FM051900 05009KT P6SM VCSH OVC035
      AMD LTD TO CLD VIS AND WIND=

USA.gov is the U.S. government's official web portal to all federal, state and local government web resources and services.